createdAt,value
2018-05-17T00:00:47.861Z,28.87
2018-05-17T00:03:15.369Z,29.40
2018-05-17T00:05:42.841Z,28.57
2018-05-17T00:08:10.300Z,21.40
2018-05-17T00:10:38.551Z,18.03
2018-05-17T00:13:06.009Z,22.43
2018-05-17T00:15:33.498Z,30.33
2018-05-17T00:18:01.712Z,20.63
2018-05-17T00:20:29.200Z,25.53
2018-05-17T00:22:56.659Z,25.57
2018-05-17T00:25:24.142Z,25.13
2018-05-17T00:27:51.612Z,21.83
2018-05-17T00:30:19.097Z,21.33
2018-05-17T00:32:46.573Z,32.53
2018-05-17T00:35:14.052Z,26.03
2018-05-17T00:37:43.195Z,34.70
2018-05-17T00:40:10.644Z,30.97
2018-05-17T00:42:38.116Z,29.10
2018-05-17T00:45:05.574Z,31.60
2018-05-17T00:47:33.054Z,25.40
2018-05-17T00:50:00.534Z,31.37
2018-05-17T00:52:28.028Z,28.67
2018-05-17T00:54:56.289Z,26.93
2018-05-17T00:57:24.521Z,32.67
2018-05-17T00:59:52.016Z,32.97
2018-05-17T01:02:20.249Z,29.97
2018-05-17T01:04:47.706Z,30.07
2018-05-17T01:07:15.176Z,26.73
2018-05-17T01:09:42.648Z,26.50
2018-05-17T01:12:10.134Z,24.97
2018-05-17T01:14:37.616Z,22.80
2018-05-17T01:17:05.090Z,31.77
2018-05-17T01:19:32.594Z,24.27
2018-05-17T01:22:00.053Z,23.67
2018-05-17T01:24:27.545Z,29.53
2018-05-17T01:26:55.005Z,31.53
2018-05-17T01:29:22.496Z,32.03
2018-05-17T01:31:49.985Z,33.77
2018-05-17T01:34:18.221Z,31.40
2018-05-17T01:36:57.349Z,25.37
2018-05-17T01:39:24.832Z,38.20
2018-05-17T01:41:53.056Z,34.03
2018-05-17T01:44:20.545Z,33.70
2018-05-17T01:46:48.002Z,29.00
2018-05-17T01:49:15.461Z,32.13
2018-05-17T01:51:42.968Z,33.90
2018-05-17T01:54:10.420Z,45.90
2018-05-17T01:56:37.904Z,34.17
2018-05-17T01:59:05.352Z,42.13
2018-05-17T02:01:32.844Z,36.40
2018-05-17T02:04:00.370Z,26.17
2018-05-17T02:06:27.869Z,34.47
2018-05-17T02:08:55.323Z,42.10
2018-05-17T02:11:22.804Z,43.90
2018-05-17T02:13:51.029Z,42.43
2018-05-17T02:16:18.490Z,35.63
2018-05-17T02:18:45.961Z,34.60
2018-05-17T02:21:13.456Z,39.03
2018-05-17T02:23:41.691Z,34.20
2018-05-17T02:26:09.152Z,35.70
2018-05-17T02:28:36.645Z,29.47
2018-05-17T02:31:04.870Z,31.40
2018-05-17T02:33:32.360Z,42.03
2018-05-17T02:35:59.827Z,41.57
2018-05-17T02:38:27.348Z,31.63
2018-05-17T02:40:54.825Z,37.57
2018-05-17T02:43:22.277Z,35.63
2018-05-17T02:45:49.764Z,31.83
2018-05-17T02:48:17.991Z,40.07
2018-05-17T02:50:45.472Z,34.03
2018-05-17T02:53:12.927Z,41.27
2018-05-17T02:55:40.398Z,46.70
2018-05-17T02:58:07.872Z,36.80
2018-05-17T03:00:36.164Z,34.33
2018-05-17T03:03:03.620Z,47.40
2018-05-17T03:05:31.076Z,39.63
2018-05-17T03:07:58.861Z,38.97
2018-05-17T03:10:26.432Z,35.83
2018-05-17T03:12:53.904Z,50.60
2018-05-17T03:15:21.388Z,33.60
2018-05-17T03:17:48.837Z,33.30
2018-05-17T03:20:16.332Z,35.63
2018-05-17T03:22:43.799Z,38.80
2018-05-17T03:25:11.261Z,41.57
2018-05-17T03:27:38.741Z,39.13
2018-05-17T03:30:06.969Z,38.47
2018-05-17T03:32:34.453Z,36.47
2018-05-17T03:35:01.924Z,37.37
2018-05-17T03:37:29.399Z,34.47
2018-05-17T03:39:56.861Z,36.90
2018-05-17T03:42:24.355Z,36.27
2018-05-17T03:44:52.584Z,44.47
2018-05-17T03:47:20.037Z,42.20
2018-05-17T03:49:47.515Z,39.00
2018-05-17T03:52:14.969Z,34.53
2018-05-17T03:54:42.464Z,41.57
2018-05-17T03:57:09.927Z,43.33
2018-05-17T03:59:37.480Z,46.83
2018-05-17T04:02:16.840Z,36.53
2018-05-17T04:04:56.204Z,40.97
2018-05-17T04:07:24.458Z,45.27
2018-05-17T04:09:51.917Z,39.60
2018-05-17T04:12:19.394Z,45.57
2018-05-17T04:14:46.845Z,37.03
2018-05-17T04:17:14.312Z,44.03
2018-05-17T04:19:41.864Z,35.47
2018-05-17T04:22:09.340Z,31.17
2018-05-17T04:24:36.852Z,33.03
2018-05-17T04:27:04.332Z,36.83
2018-05-17T04:29:31.821Z,45.40
2018-05-17T04:31:59.272Z,39.47
2018-05-17T04:34:26.758Z,36.27
2018-05-17T04:36:55.003Z,38.63
2018-05-17T04:39:22.481Z,40.90
2018-05-17T04:41:50.725Z,28.97
2018-05-17T04:44:18.181Z,40.87
2018-05-17T04:46:46.415Z,40.13
2018-05-17T04:49:13.864Z,43.37
2018-05-17T04:51:41.373Z,45.03
2018-05-17T04:54:08.832Z,42.13
2018-05-17T04:56:36.300Z,39.87
2018-05-17T04:59:03.767Z,40.17
2018-05-17T05:01:32.012Z,36.60
2018-05-17T05:03:59.491Z,33.67
2018-05-17T05:06:26.956Z,38.67
2018-05-17T05:08:54.452Z,43.83
2018-05-17T05:11:21.928Z,37.17
2018-05-17T05:13:49.470Z,42.20
2018-05-17T05:16:16.968Z,38.33
2018-05-17T05:18:44.460Z,40.73
2018-05-17T05:21:11.933Z,42.20
2018-05-17T05:23:39.423Z,43.17
2018-05-17T05:26:06.911Z,37.40
2018-05-17T05:28:34.388Z,37.80
2018-05-17T05:31:01.852Z,49.13
2018-05-17T05:33:29.340Z,34.23
2018-05-17T05:35:56.856Z,46.60
2018-05-17T05:38:25.110Z,43.27
2018-05-17T05:40:52.622Z,51.77
2018-05-17T05:43:20.114Z,43.83
2018-05-17T05:45:47.584Z,34.30
2018-05-17T05:48:15.040Z,42.87
2018-05-17T05:50:42.522Z,40.63
2018-05-17T05:53:10.780Z,44.73
2018-05-17T05:55:38.349Z,34.80
2018-05-17T05:58:05.789Z,41.57
2018-05-17T06:00:33.257Z,35.40
2018-05-17T06:03:00.787Z,34.33
2018-05-17T06:05:28.277Z,39.17
2018-05-17T06:07:55.736Z,38.00
2018-05-17T06:10:23.187Z,39.53
2018-05-17T06:12:50.658Z,37.60
2018-05-17T06:15:18.916Z,37.07
2018-05-17T06:17:46.392Z,33.50
2018-05-17T06:20:13.884Z,46.93
2018-05-17T06:22:41.376Z,38.23
2018-05-17T06:25:08.868Z,43.73
2018-05-17T06:27:36.359Z,35.03
2018-05-17T06:30:03.818Z,35.97
2018-05-17T06:32:31.318Z,40.63
2018-05-17T06:34:58.785Z,38.63
2018-05-17T06:37:26.243Z,37.87
2018-05-17T06:39:53.712Z,41.73
2018-05-17T06:42:21.416Z,33.90
2018-05-17T06:44:48.907Z,34.27
2018-05-17T06:47:17.686Z,33.43
2018-05-17T06:49:45.827Z,42.90
2018-05-17T06:52:13.570Z,32.50
2018-05-17T06:54:43.806Z,38.53
2018-05-17T06:57:11.331Z,39.10
2018-05-17T06:59:38.806Z,32.90
2018-05-17T07:02:06.272Z,43.77
2018-05-17T07:04:34.001Z,40.10
2018-05-17T07:07:03.270Z,36.60
2018-05-17T07:09:32.958Z,40.00
2018-05-17T07:12:01.217Z,41.33
2018-05-17T07:14:28.713Z,38.13
2018-05-17T07:16:56.175Z,41.73
2018-05-17T07:19:23.713Z,38.27
2018-05-17T07:21:52.052Z,36.53
2018-05-17T07:24:28.552Z,37.23
2018-05-17T07:26:56.273Z,35.67
2018-05-17T07:29:23.752Z,37.37
2018-05-17T07:31:51.237Z,35.13
2018-05-17T07:34:18.755Z,37.37
2018-05-17T07:36:46.204Z,31.97
2018-05-17T07:39:13.674Z,45.57
2018-05-17T07:41:41.218Z,34.53
2018-05-17T07:44:08.830Z,36.10
2018-05-17T07:46:36.410Z,33.37
2018-05-17T07:49:03.817Z,34.07
2018-05-17T07:51:31.268Z,35.93
2018-05-17T07:53:58.756Z,36.50
2018-05-17T07:56:26.221Z,35.20
2018-05-17T07:58:53.696Z,33.40
2018-05-17T08:01:21.160Z,36.70
2018-05-17T08:03:48.637Z,40.13
2018-05-17T08:06:16.116Z,34.60
2018-05-17T08:08:43.572Z,28.07
2018-05-17T08:11:11.066Z,42.80
2018-05-17T08:13:38.529Z,33.37
2018-05-17T08:16:06.020Z,40.73
2018-05-17T08:18:33.490Z,44.23
2018-05-17T08:21:00.976Z,33.23
2018-05-17T08:23:28.429Z,31.20
2018-05-17T08:25:55.928Z,35.67
2018-05-17T08:28:23.396Z,34.47
2018-05-17T08:30:50.851Z,36.07
2018-05-17T08:33:18.344Z,33.43
2018-05-17T08:35:45.806Z,39.17
2018-05-17T08:38:13.244Z,33.53
2018-05-17T08:40:40.724Z,37.03
2018-05-17T08:43:08.225Z,37.27
2018-05-17T08:45:36.957Z,32.40
2018-05-17T08:48:04.413Z,35.67
2018-05-17T08:50:31.885Z,34.27
2018-05-17T08:52:59.343Z,37.93
2018-05-17T08:55:26.869Z,31.07
2018-05-17T08:57:54.323Z,31.20
2018-05-17T09:00:21.834Z,38.20
2018-05-17T09:02:50.094Z,29.90
2018-05-17T09:05:17.592Z,30.47
2018-05-17T09:07:45.123Z,34.07
2018-05-17T09:10:12.644Z,39.97
2018-05-17T09:12:40.124Z,31.57
2018-05-17T09:15:08.387Z,33.63
2018-05-17T09:17:35.858Z,31.50
2018-05-17T09:20:03.364Z,35.17
2018-05-17T09:22:30.846Z,32.67
2018-05-17T09:24:58.317Z,30.37
2018-05-17T09:27:25.853Z,34.30
2018-05-17T09:29:53.321Z,28.33
2018-05-17T09:32:20.787Z,40.13
2018-05-17T09:34:48.267Z,25.30
2018-05-17T09:37:15.720Z,28.87
2018-05-17T09:39:43.407Z,29.77
2018-05-17T09:42:10.855Z,26.03
2018-05-17T09:44:38.353Z,27.20
2018-05-17T09:47:07.774Z,34.13
2018-05-17T09:49:35.220Z,30.40
2018-05-17T09:52:02.710Z,29.13
2018-05-17T09:54:30.192Z,28.23
2018-05-17T09:56:57.712Z,34.97
2018-05-17T09:59:25.182Z,25.87
2018-05-17T10:01:52.951Z,25.27
2018-05-17T10:04:20.420Z,28.27
2018-05-17T10:06:47.911Z,29.63
2018-05-17T10:09:15.371Z,32.07
2018-05-17T10:11:42.856Z,31.90
2018-05-17T10:14:10.452Z,26.10
2018-05-17T10:16:37.927Z,26.97
2018-05-17T10:19:05.455Z,28.87
2018-05-17T10:21:34.598Z,28.70
2018-05-17T10:24:02.056Z,39.80
2018-05-17T10:26:29.946Z,29.80
2018-05-17T10:28:57.924Z,29.33
2018-05-17T10:31:26.164Z,35.43
2018-05-17T10:33:53.632Z,30.27
2018-05-17T10:36:21.094Z,32.40
2018-05-17T10:38:48.584Z,29.03
2018-05-17T10:41:16.812Z,28.97
2018-05-17T10:43:45.031Z,37.57
2018-05-17T10:46:13.148Z,28.77
2018-05-17T10:48:40.597Z,27.53
2018-05-17T10:51:08.089Z,32.87
2018-05-17T10:53:36.708Z,34.10
2018-05-17T10:56:04.177Z,30.97
2018-05-17T10:58:31.644Z,22.53
2018-05-17T11:00:59.112Z,31.70
2018-05-17T11:03:26.664Z,31.13
2018-05-17T11:05:54.133Z,33.27
2018-05-17T11:08:21.586Z,29.30
2018-05-17T11:10:49.095Z,30.80
2018-05-17T11:13:16.573Z,31.17
2018-05-17T11:15:44.888Z,33.40
2018-05-17T11:18:12.385Z,29.97
2018-05-17T11:20:39.837Z,32.00
2018-05-17T11:23:07.324Z,28.57
2018-05-17T11:25:35.715Z,29.93
2018-05-17T11:28:03.266Z,28.07
2018-05-17T11:30:31.480Z,26.47
2018-05-17T11:32:59.033Z,29.00
2018-05-17T11:35:26.436Z,26.67
2018-05-17T11:37:53.923Z,23.33
2018-05-17T11:40:21.428Z,32.00
2018-05-17T11:42:48.892Z,28.43
2018-05-17T11:45:20.164Z,35.77
2018-05-17T11:47:50.762Z,33.70
2018-05-17T11:50:19.010Z,29.57
2018-05-17T11:52:46.461Z,28.70
2018-05-17T11:55:14.031Z,27.63
2018-05-17T11:57:41.478Z,26.97
2018-05-17T12:00:09.312Z,31.30
2018-05-17T12:02:36.820Z,27.03
2018-05-17T12:05:04.251Z,31.33
2018-05-17T12:07:32.486Z,32.70
2018-05-17T12:09:59.989Z,32.97
2018-05-17T12:12:27.479Z,38.43
2018-05-17T12:14:55.331Z,32.70
2018-05-17T12:17:22.832Z,40.00
2018-05-17T12:19:50.330Z,31.23
2018-05-17T12:22:17.798Z,31.10
2018-05-17T12:24:45.284Z,35.77
2018-05-17T12:27:13.517Z,27.77
2018-05-17T12:29:40.989Z,35.70
2018-05-17T12:32:09.468Z,25.87
2018-05-17T12:34:36.960Z,41.07
2018-05-17T12:37:05.229Z,32.67
2018-05-17T12:39:32.683Z,34.30
2018-05-17T12:42:00.141Z,22.43
2018-05-17T12:44:27.634Z,28.40
2018-05-17T12:46:55.111Z,23.07
2018-05-17T12:49:22.570Z,33.60
2018-05-17T12:51:50.092Z,31.50
2018-05-17T12:54:17.557Z,33.73
2018-05-17T12:56:45.150Z,29.23
2018-05-17T12:59:12.523Z,26.50
2018-05-17T13:01:40.028Z,28.43
2018-05-17T13:04:07.536Z,30.17
2018-05-17T13:06:35.035Z,28.33
2018-05-17T13:09:02.517Z,27.07
2018-05-17T13:11:29.984Z,39.23
2018-05-17T13:13:58.224Z,30.20
2018-05-17T13:16:25.709Z,32.37
2018-05-17T13:18:54.017Z,28.77
2018-05-17T13:21:21.490Z,33.60
2018-05-17T13:23:48.965Z,36.07
2018-05-17T13:26:16.448Z,30.77
2018-05-17T13:28:43.901Z,30.03
2018-05-17T13:31:11.376Z,33.73
2018-05-17T13:33:39.632Z,34.93
2018-05-17T13:36:07.118Z,40.33
2018-05-17T13:38:35.370Z,33.07
2018-05-17T13:41:02.860Z,39.97
2018-05-17T13:43:31.113Z,38.57
2018-05-17T13:45:58.613Z,34.40
2018-05-17T13:48:26.088Z,40.23
2018-05-17T13:50:53.555Z,34.77
2018-05-17T13:53:21.160Z,31.53
2018-05-17T13:55:49.403Z,36.97
2018-05-17T13:58:17.060Z,41.53
2018-05-17T14:00:45.525Z,34.77
2018-05-17T14:03:13.234Z,41.73
2018-05-17T14:05:41.509Z,34.70
2018-05-17T14:08:09.770Z,42.70
2018-05-17T14:10:37.245Z,44.97
2018-05-17T14:13:04.720Z,42.53
2018-05-17T14:15:32.262Z,41.83
2018-05-17T14:17:59.719Z,41.73
2018-05-17T14:20:27.173Z,45.07
2018-05-17T14:22:54.716Z,41.90
2018-05-17T14:25:22.192Z,36.07
2018-05-17T14:27:49.686Z,38.23
2018-05-17T14:30:17.163Z,37.23
2018-05-17T14:32:44.638Z,44.70
2018-05-17T14:35:12.157Z,31.93
2018-05-17T14:37:40.415Z,33.50
2018-05-17T14:40:07.896Z,36.73
2018-05-17T14:42:35.492Z,30.90
2018-05-17T14:45:02.985Z,36.00
2018-05-17T14:47:30.461Z,30.53
2018-05-17T14:49:58.729Z,30.07
2018-05-17T14:52:26.215Z,37.63
2018-05-17T14:54:54.460Z,30.97
2018-05-17T14:57:21.952Z,29.13
2018-05-17T14:59:49.452Z,36.50
2018-05-17T15:02:16.904Z,24.17
2018-05-17T15:04:44.359Z,31.00
2018-05-17T15:07:11.820Z,29.73
2018-05-17T15:09:39.316Z,34.13
2018-05-17T15:12:07.544Z,40.83
2018-05-17T15:14:35.024Z,28.67
2018-05-17T15:17:02.485Z,25.83
2018-05-17T15:19:29.961Z,29.13
2018-05-17T15:21:57.408Z,27.47
2018-05-17T15:24:24.888Z,28.90
2018-05-17T15:26:52.374Z,28.00
2018-05-17T15:29:19.855Z,25.10
2018-05-17T15:31:47.324Z,25.57
2018-05-17T15:34:14.811Z,28.13
2018-05-17T15:36:43.086Z,24.80
2018-05-17T15:39:10.564Z,27.47
2018-05-17T15:41:38.127Z,22.57
2018-05-17T15:44:05.532Z,26.57
2018-05-17T15:46:33.013Z,25.47
2018-05-17T15:49:00.471Z,31.53
2018-05-17T15:51:28.714Z,27.13
2018-05-17T15:53:56.208Z,31.13
2018-05-17T15:56:24.436Z,29.13
2018-05-17T15:58:59.708Z,35.77
2018-05-17T16:01:29.261Z,30.60
2018-05-17T16:03:57.459Z,28.13
2018-05-17T16:06:25.275Z,26.30
2018-05-17T16:08:52.761Z,31.13
2018-05-17T16:11:20.734Z,27.57
2018-05-17T16:13:48.441Z,25.37
2018-05-17T16:16:15.907Z,23.47
2018-05-17T16:18:43.396Z,26.33
2018-05-17T16:21:11.787Z,26.43
2018-05-17T16:23:39.258Z,30.67
2018-05-17T16:26:06.785Z,23.57
2018-05-17T16:28:35.206Z,29.10
2018-05-17T16:31:02.688Z,26.00
2018-05-17T16:33:30.167Z,27.40
2018-05-17T16:35:57.637Z,28.40
2018-05-17T16:38:25.100Z,25.53
2018-05-17T16:40:52.609Z,30.87
2018-05-17T16:43:20.947Z,24.47
2018-05-17T16:45:48.499Z,27.63
2018-05-17T16:48:16.839Z,24.30
2018-05-17T16:50:44.276Z,30.83
2018-05-17T16:53:12.618Z,32.47
2018-05-17T16:55:39.992Z,24.03
2018-05-17T16:58:07.485Z,28.77
2018-05-17T17:00:34.972Z,26.43
2018-05-17T17:03:02.423Z,20.40
2018-05-17T17:05:29.900Z,20.67
2018-05-17T17:07:57.413Z,20.77
2018-05-17T17:10:25.692Z,32.20
2018-05-17T17:12:53.180Z,30.63
2018-05-17T17:15:20.645Z,27.67
2018-05-17T17:17:48.267Z,28.43
2018-05-17T17:20:15.668Z,27.90
2018-05-17T17:22:43.156Z,28.57
2018-05-17T17:25:10.677Z,26.70
2018-05-17T17:27:38.157Z,28.60
2018-05-17T17:30:05.629Z,43.27
2018-05-17T17:32:33.112Z,22.27
2018-05-17T17:35:00.614Z,30.63
2018-05-17T17:37:28.067Z,23.50
2018-05-17T17:39:55.562Z,23.97
2018-05-17T17:42:23.012Z,29.97
2018-05-17T17:44:50.508Z,26.20
2018-05-17T17:47:17.989Z,36.03
2018-05-17T17:49:45.475Z,30.97
2018-05-17T17:52:12.956Z,29.37
2018-05-17T17:54:41.209Z,34.53
2018-05-17T17:57:08.670Z,36.60
2018-05-17T17:59:36.193Z,35.70
2018-05-17T18:02:03.655Z,31.50
2018-05-17T18:04:31.145Z,34.83
2018-05-17T18:06:58.609Z,35.07
2018-05-17T18:09:26.093Z,40.20
2018-05-17T18:11:54.352Z,40.30
2018-05-17T18:14:21.890Z,42.83
2018-05-17T18:16:49.388Z,44.80
2018-05-17T18:19:17.626Z,47.17
2018-05-17T18:21:45.122Z,40.83
2018-05-17T18:24:12.600Z,46.73
2018-05-17T18:26:40.085Z,56.67
2018-05-17T18:29:07.569Z,49.73
2018-05-17T18:31:35.131Z,54.33
2018-05-17T18:34:02.605Z,52.07
2018-05-17T18:36:30.825Z,58.73
2018-05-17T18:38:58.305Z,47.97
2018-05-17T18:41:25.769Z,55.07
2018-05-17T18:43:53.252Z,52.00
2018-05-17T18:46:21.481Z,60.20
2018-05-17T18:48:48.984Z,61.30
2018-05-17T18:51:16.440Z,66.83
2018-05-17T18:53:44.362Z,57.63
2018-05-17T18:56:12.631Z,53.47
2018-05-17T18:58:40.091Z,51.10
2018-05-17T19:01:07.627Z,54.63
2018-05-17T19:03:35.905Z,56.37
2018-05-17T19:06:03.423Z,60.97
2018-05-17T19:08:30.893Z,55.17
2018-05-17T19:10:59.127Z,63.57
2018-05-17T19:13:26.636Z,55.57
2018-05-17T19:15:54.107Z,52.73
2018-05-17T19:18:21.650Z,65.47
2018-05-17T19:20:49.128Z,63.77
2018-05-17T19:23:16.905Z,63.20
2018-05-17T19:25:44.439Z,68.87
2018-05-17T19:28:11.881Z,52.63
2018-05-17T19:30:39.377Z,44.87
2018-05-17T19:33:06.852Z,56.33
2018-05-17T19:35:34.361Z,63.90
2018-05-17T19:38:02.349Z,62.03
2018-05-17T19:40:30.037Z,57.40
2018-05-17T19:42:57.547Z,63.73
2018-05-17T19:45:25.247Z,66.57
2018-05-17T19:47:52.692Z,55.83
2018-05-17T19:50:20.169Z,58.87
2018-05-17T19:52:47.790Z,53.97
2018-05-17T19:55:15.164Z,65.47
2018-05-17T19:57:42.760Z,54.13
2018-05-17T20:00:10.232Z,55.70
2018-05-17T20:02:37.713Z,55.80
2018-05-17T20:05:06.074Z,55.97
2018-05-17T20:07:33.452Z,64.57
2018-05-17T20:10:00.912Z,49.67
2018-05-17T20:12:28.418Z,58.17
2018-05-17T20:14:55.897Z,57.63
2018-05-17T20:17:23.384Z,52.07
2018-05-17T20:19:50.990Z,64.13
2018-05-17T20:22:18.474Z,55.23
2018-05-17T20:24:45.933Z,54.47
2018-05-17T20:27:13.413Z,59.77
2018-05-17T20:29:40.873Z,49.23
2018-05-17T20:32:08.358Z,53.03
2018-05-17T20:34:35.837Z,56.73
2018-05-17T20:37:03.292Z,48.93
2018-05-17T20:39:30.770Z,55.07
2018-05-17T20:41:58.224Z,44.37
2018-05-17T20:44:25.741Z,45.53
2018-05-17T20:46:53.291Z,42.47
2018-05-17T20:49:20.789Z,54.07
2018-05-17T20:51:48.305Z,46.37
2018-05-17T20:54:15.776Z,49.23
2018-05-17T20:56:43.275Z,45.50
2018-05-17T20:59:10.729Z,43.47
2018-05-17T21:01:38.284Z,39.93
2018-05-17T21:04:05.765Z,45.87
2018-05-17T21:06:34.008Z,39.80
2018-05-17T21:09:02.260Z,37.10
2018-05-17T21:11:29.748Z,40.53
2018-05-17T21:13:57.280Z,37.67
2018-05-17T21:16:24.749Z,43.03
2018-05-17T21:18:52.299Z,41.57
2018-05-17T21:21:19.753Z,39.70
2018-05-17T21:23:47.983Z,30.70
2018-05-17T21:26:15.488Z,38.63
2018-05-17T21:28:42.968Z,44.37
2018-05-17T21:31:10.493Z,43.97
2018-05-17T21:33:38.016Z,36.37
2018-05-17T21:36:05.509Z,36.03
2018-05-17T21:38:33.125Z,43.93
2018-05-17T21:41:01.350Z,37.27
2018-05-17T21:43:28.844Z,45.37
2018-05-17T21:45:56.348Z,41.63
2018-05-17T21:48:23.908Z,36.30
2018-05-17T21:50:51.368Z,41.53
2018-05-17T21:53:18.880Z,36.43
2018-05-17T21:55:46.336Z,42.10
2018-05-17T21:58:13.807Z,31.27
2018-05-17T22:00:41.296Z,41.37
2018-05-17T22:03:08.853Z,29.70
2018-05-17T22:05:36.340Z,37.43
2018-05-17T22:08:03.860Z,37.77
2018-05-17T22:10:31.319Z,37.20
2018-05-17T22:12:58.813Z,44.70
2018-05-17T22:15:26.273Z,38.27
2018-05-17T22:17:53.769Z,39.37
2018-05-17T22:20:22.044Z,28.60
2018-05-17T22:22:50.327Z,41.97
2018-05-17T22:25:18.585Z,35.53
2018-05-17T22:27:46.111Z,35.30
2018-05-17T22:30:13.604Z,38.57
2018-05-17T22:32:41.131Z,36.73
2018-05-17T22:35:08.614Z,42.57
2018-05-17T22:37:36.149Z,41.23
2018-05-17T22:40:03.639Z,42.27
2018-05-17T22:42:31.116Z,38.93
2018-05-17T22:44:59.380Z,31.90
2018-05-17T22:47:27.725Z,34.90
2018-05-17T22:49:55.225Z,37.27
2018-05-17T22:52:22.672Z,40.70
2018-05-17T22:54:50.995Z,34.47
2018-05-17T22:57:30.392Z,35.97
2018-05-17T22:59:57.897Z,37.23
2018-05-17T23:02:25.384Z,37.43
2018-05-17T23:04:52.872Z,31.40
2018-05-17T23:07:21.108Z,35.40
2018-05-17T23:09:48.632Z,37.23
2018-05-17T23:12:16.165Z,36.20
2018-05-17T23:14:43.660Z,35.57
2018-05-17T23:17:11.226Z,40.37
2018-05-17T23:19:38.704Z,34.70
2018-05-17T23:22:06.174Z,32.33
2018-05-17T23:24:33.692Z,37.40
2018-05-17T23:27:01.184Z,31.33
2018-05-17T23:29:28.653Z,36.83
2018-05-17T23:31:56.913Z,39.83
2018-05-17T23:34:24.414Z,38.43
2018-05-17T23:36:51.956Z,33.80
2018-05-17T23:39:19.420Z,31.87
2018-05-17T23:41:46.941Z,32.87
2018-05-17T23:44:14.396Z,41.37
2018-05-17T23:46:41.882Z,34.30
2018-05-17T23:49:10.124Z,33.43
2018-05-17T23:51:37.628Z,31.00
2018-05-17T23:54:05.130Z,39.10
2018-05-17T23:56:32.633Z,39.00
2018-05-17T23:59:00.888Z,35.20
